sensor_id;sensor_type;location;lat;lon;timestamp;P1;durP1;ratioP1;P2;durP2;ratioP2
438;SDS011;206;48.782;9.252;2023-06-04T00:00:21;8.50;;;7.40;;
438;SDS011;206;48.782;9.252;2023-06-04T00:02:47;8.07;;;7.67;;
438;SDS011;206;48.782;9.252;2023-06-04T00:05:12;7.10;;;6.43;;
438;SDS011;206;48.782;9.252;2023-06-04T00:07:38;8.83;;;7.07;;
438;SDS011;206;48.782;9.252;2023-06-04T00:10:04;9.00;;;7.90;;
438;SDS011;206;48.782;9.252;2023-06-04T00:12:30;7.60;;;6.40;;
438;SDS011;206;48.782;9.252;2023-06-04T00:14:55;8.40;;;6.20;;
438;SDS011;206;48.782;9.252;2023-06-04T00:17:21;8.23;;;6.53;;
438;SDS011;206;48.782;9.252;2023-06-04T00:19:46;11.13;;;7.20;;
438;SDS011;206;48.782;9.252;2023-06-04T00:22:12;9.10;;;6.37;;
438;SDS011;206;48.782;9.252;2023-06-04T00:24:38;7.10;;;6.70;;
438;SDS011;206;48.782;9.252;2023-06-04T00:27:07;13.73;;;7.30;;
438;SDS011;206;48.782;9.252;2023-06-04T00:29:33;7.00;;;6.60;;
438;SDS011;206;48.782;9.252;2023-06-04T00:31:59;7.50;;;7.17;;
438;SDS011;206;48.782;9.252;2023-06-04T00:34:25;7.50;;;5.70;;
438;SDS011;206;48.782;9.252;2023-06-04T00:36:50;8.60;;;7.40;;
438;SDS011;206;48.782;9.252;2023-06-04T00:39:16;6.93;;;5.73;;
438;SDS011;206;48.782;9.252;2023-06-04T00:41:42;7.33;;;5.33;;
438;SDS011;206;48.782;9.252;2023-06-04T00:44:07;7.50;;;6.50;;
438;SDS011;206;48.782;9.252;2023-06-04T00:46:33;8.20;;;5.80;;
438;SDS011;206;48.782;9.252;2023-06-04T00:49:00;6.60;;;6.00;;
438;SDS011;206;48.782;9.252;2023-06-04T00:51:26;10.33;;;6.57;;
438;SDS011;206;48.782;9.252;2023-06-04T00:53:55;8.53;;;5.70;;
438;SDS011;206;48.782;9.252;2023-06-04T00:56:21;8.03;;;6.07;;
438;SDS011;206;48.782;9.252;2023-06-04T00:58:47;6.70;;;6.17;;
438;SDS011;206;48.782;9.252;2023-06-04T01:01:26;6.70;;;6.00;;
438;SDS011;206;48.782;9.252;2023-06-04T01:03:54;12.33;;;6.80;;
438;SDS011;206;48.782;9.252;2023-06-04T01:06:23;6.37;;;5.57;;
438;SDS011;206;48.782;9.252;2023-06-04T01:09:03;5.70;;;4.70;;
438;SDS011;206;48.782;9.252;2023-06-04T01:11:36;5.87;;;4.90;;
438;SDS011;206;48.782;9.252;2023-06-04T01:14:04;6.70;;;5.20;;
438;SDS011;206;48.782;9.252;2023-06-04T01:16:43;6.40;;;5.70;;
438;SDS011;206;48.782;9.252;2023-06-04T01:22:01;7.07;;;6.23;;
438;SDS011;206;48.782;9.252;2023-06-04T01:24:29;4.73;;;4.10;;
438;SDS011;206;48.782;9.252;2023-06-04T01:27:01;16.10;;;4.53;;
438;SDS011;206;48.782;9.252;2023-06-04T01:29:28;5.03;;;4.77;;
438;SDS011;206;48.782;9.252;2023-06-04T01:31:55;8.10;;;4.47;;
438;SDS011;206;48.782;9.252;2023-06-04T01:34:21;6.97;;;5.03;;
438;SDS011;206;48.782;9.252;2023-06-04T01:36:47;12.57;;;6.00;;
438;SDS011;206;48.782;9.252;2023-06-04T01:39:13;5.53;;;5.10;;
438;SDS011;206;48.782;9.252;2023-06-04T01:41:38;5.03;;;4.63;;
438;SDS011;206;48.782;9.252;2023-06-04T01:44:04;16.03;;;5.93;;
438;SDS011;206;48.782;9.252;2023-06-04T01:46:29;5.67;;;5.20;;
438;SDS011;206;48.782;9.252;2023-06-04T01:48:56;8.40;;;3.93;;
438;SDS011;206;48.782;9.252;2023-06-04T01:51:21;6.47;;;4.57;;
438;SDS011;206;48.782;9.252;2023-06-04T01:53:47;5.87;;;4.87;;
438;SDS011;206;48.782;9.252;2023-06-04T01:56:12;5.83;;;4.70;;
438;SDS011;206;48.782;9.252;2023-06-04T01:58:39;4.73;;;4.43;;
438;SDS011;206;48.782;9.252;2023-06-04T02:01:05;5.17;;;4.13;;
438;SDS011;206;48.782;9.252;2023-06-04T02:03:31;4.70;;;4.40;;
438;SDS011;206;48.782;9.252;2023-06-04T02:06:02;4.70;;;4.40;;
438;SDS011;206;48.782;9.252;2023-06-04T02:08:29;7.80;;;5.20;;
438;SDS011;206;48.782;9.252;2023-06-04T02:10:55;7.17;;;4.80;;
438;SDS011;206;48.782;9.252;2023-06-04T02:13:21;5.53;;;4.97;;
438;SDS011;206;48.782;9.252;2023-06-04T02:15:46;6.33;;;4.27;;
438;SDS011;206;48.782;9.252;2023-06-04T02:20:41;5.83;;;4.63;;
438;SDS011;206;48.782;9.252;2023-06-04T02:23:06;8.87;;;5.10;;
438;SDS011;206;48.782;9.252;2023-06-04T02:25:32;4.93;;;4.43;;
438;SDS011;206;48.782;9.252;2023-06-04T02:27:58;6.70;;;4.63;;
438;SDS011;206;48.782;9.252;2023-06-04T02:30:23;6.17;;;4.17;;
438;SDS011;206;48.782;9.252;2023-06-04T02:32:49;6.50;;;4.80;;
438;SDS011;206;48.782;9.252;2023-06-04T02:35:16;6.20;;;4.13;;
438;SDS011;206;48.782;9.252;2023-06-04T02:37:42;5.10;;;4.30;;
438;SDS011;206;48.782;9.252;2023-06-04T02:40:08;4.27;;;4.00;;
438;SDS011;206;48.782;9.252;2023-06-04T02:42:35;4.97;;;4.30;;
438;SDS011;206;48.782;9.252;2023-06-04T02:45:00;5.73;;;5.00;;
438;SDS011;206;48.782;9.252;2023-06-04T02:47:26;6.57;;;5.80;;
438;SDS011;206;48.782;9.252;2023-06-04T02:49:52;6.60;;;4.97;;
438;SDS011;206;48.782;9.252;2023-06-04T02:52:17;6.27;;;4.47;;
438;SDS011;206;48.782;9.252;2023-06-04T02:54:43;5.43;;;4.40;;
438;SDS011;206;48.782;9.252;2023-06-04T02:57:09;7.20;;;3.93;;
438;SDS011;206;48.782;9.252;2023-06-04T02:59:34;5.53;;;4.50;;
438;SDS011;206;48.782;9.252;2023-06-04T03:02:01;4.63;;;4.07;;
438;SDS011;206;48.782;9.252;2023-06-04T03:04:27;5.30;;;4.20;;
438;SDS011;206;48.782;9.252;2023-06-04T03:07:02;5.17;;;4.67;;
438;SDS011;206;48.782;9.252;2023-06-04T03:09:32;5.83;;;4.60;;
438;SDS011;206;48.782;9.252;2023-06-04T03:12:01;5.07;;;4.30;;
438;SDS011;206;48.782;9.252;2023-06-04T03:14:28;5.67;;;4.30;;
438;SDS011;206;48.782;9.252;2023-06-04T03:16:57;5.13;;;4.70;;
438;SDS011;206;48.782;9.252;2023-06-04T03:19:26;6.20;;;4.70;;
438;SDS011;206;48.782;9.252;2023-06-04T03:21:52;5.07;;;4.80;;
438;SDS011;206;48.782;9.252;2023-06-04T03:24:18;6.87;;;5.40;;
438;SDS011;206;48.782;9.252;2023-06-04T03:26:44;5.00;;;4.53;;
438;SDS011;206;48.782;9.252;2023-06-04T03:29:10;6.83;;;4.37;;
438;SDS011;206;48.782;9.252;2023-06-04T03:31:36;5.13;;;3.93;;
438;SDS011;206;48.782;9.252;2023-06-04T03:34:02;5.83;;;4.60;;
438;SDS011;206;48.782;9.252;2023-06-04T03:36:29;4.90;;;4.60;;
438;SDS011;206;48.782;9.252;2023-06-04T03:38:56;7.90;;;5.03;;
438;SDS011;206;48.782;9.252;2023-06-04T03:41:22;6.30;;;5.10;;
438;SDS011;206;48.782;9.252;2023-06-04T03:43:48;4.97;;;4.67;;
438;SDS011;206;48.782;9.252;2023-06-04T03:46:13;8.90;;;4.40;;
438;SDS011;206;48.782;9.252;2023-06-04T03:48:40;5.23;;;4.07;;
438;SDS011;206;48.782;9.252;2023-06-04T03:51:07;7.03;;;4.50;;
438;SDS011;206;48.782;9.252;2023-06-04T03:53:32;6.83;;;4.57;;
438;SDS011;206;48.782;9.252;2023-06-04T03:55:58;5.70;;;4.17;;
438;SDS011;206;48.782;9.252;2023-06-04T03:58:23;7.03;;;5.07;;
438;SDS011;206;48.782;9.252;2023-06-04T04:00:49;4.43;;;3.90;;
438;SDS011;206;48.782;9.252;2023-06-04T04:03:14;4.20;;;3.90;;
438;SDS011;206;48.782;9.252;2023-06-04T04:05:40;5.40;;;3.77;;
438;SDS011;206;48.782;9.252;2023-06-04T04:08:06;6.07;;;4.17;;
438;SDS011;206;48.782;9.252;2023-06-04T04:10:33;3.77;;;3.40;;
438;SDS011;206;48.782;9.252;2023-06-04T04:12:59;4.63;;;4.20;;
438;SDS011;206;48.782;9.252;2023-06-04T04:15:25;4.03;;;3.83;;
438;SDS011;206;48.782;9.252;2023-06-04T04:17:50;10.63;;;4.00;;
438;SDS011;206;48.782;9.252;2023-06-04T04:20:16;3.70;;;3.50;;
438;SDS011;206;48.782;9.252;2023-06-04T04:22:43;5.40;;;4.60;;
438;SDS011;206;48.782;9.252;2023-06-04T04:25:08;6.03;;;5.17;;
438;SDS011;206;48.782;9.252;2023-06-04T04:27:34;4.53;;;4.00;;
438;SDS011;206;48.782;9.252;2023-06-04T04:30:04;7.13;;;3.93;;
438;SDS011;206;48.782;9.252;2023-06-04T04:32:30;3.60;;;3.40;;
438;SDS011;206;48.782;9.252;2023-06-04T04:34:56;5.40;;;3.23;;
438;SDS011;206;48.782;9.252;2023-06-04T04:37:22;6.17;;;3.47;;
438;SDS011;206;48.782;9.252;2023-06-04T04:39:48;4.37;;;3.40;;
438;SDS011;206;48.782;9.252;2023-06-04T04:42:17;9.77;;;3.80;;
438;SDS011;206;48.782;9.252;2023-06-04T04:44:44;4.73;;;3.60;;
438;SDS011;206;48.782;9.252;2023-06-04T04:47:12;10.30;;;3.97;;
438;SDS011;206;48.782;9.252;2023-06-04T04:49:39;5.57;;;3.47;;
438;SDS011;206;48.782;9.252;2023-06-04T04:52:04;4.00;;;3.10;;
438;SDS011;206;48.782;9.252;2023-06-04T04:54:30;4.47;;;3.23;;
438;SDS011;206;48.782;9.252;2023-06-04T04:56:55;5.63;;;3.50;;
438;SDS011;206;48.782;9.252;2023-06-04T04:59:21;5.00;;;4.60;;
438;SDS011;206;48.782;9.252;2023-06-04T05:01:46;4.90;;;3.93;;
438;SDS011;206;48.782;9.252;2023-06-04T05:04:12;3.83;;;3.00;;
438;SDS011;206;48.782;9.252;2023-06-04T05:06:37;4.83;;;3.37;;
438;SDS011;206;48.782;9.252;2023-06-04T05:09:03;7.33;;;3.37;;
438;SDS011;206;48.782;9.252;2023-06-04T05:11:29;5.20;;;3.73;;
438;SDS011;206;48.782;9.252;2023-06-04T05:13:54;4.10;;;3.90;;
438;SDS011;206;48.782;9.252;2023-06-04T05:16:20;3.13;;;2.90;;
438;SDS011;206;48.782;9.252;2023-06-04T05:18:47;9.13;;;4.33;;
438;SDS011;206;48.782;9.252;2023-06-04T05:21:16;6.33;;;3.87;;
438;SDS011;206;48.782;9.252;2023-06-04T05:23:42;7.23;;;4.27;;
438;SDS011;206;48.782;9.252;2023-06-04T05:26:10;4.70;;;3.20;;
438;SDS011;206;48.782;9.252;2023-06-04T05:28:35;6.57;;;4.40;;
438;SDS011;206;48.782;9.252;2023-06-04T05:31:01;4.67;;;3.70;;
438;SDS011;206;48.782;9.252;2023-06-04T05:33:27;4.40;;;2.80;;
438;SDS011;206;48.782;9.252;2023-06-04T05:35:55;7.03;;;3.63;;
438;SDS011;206;48.782;9.252;2023-06-04T05:38:22;4.43;;;2.87;;
438;SDS011;206;48.782;9.252;2023-06-04T05:40:50;6.77;;;3.07;;
438;SDS011;206;48.782;9.252;2023-06-04T05:43:17;4.50;;;2.97;;
438;SDS011;206;48.782;9.252;2023-06-04T05:45:42;5.17;;;3.20;;
438;SDS011;206;48.782;9.252;2023-06-04T05:48:08;4.57;;;3.20;;
438;SDS011;206;48.782;9.252;2023-06-04T05:50:34;5.63;;;3.27;;
438;SDS011;206;48.782;9.252;2023-06-04T05:52:59;4.00;;;3.37;;
438;SDS011;206;48.782;9.252;2023-06-04T05:55:25;2.87;;;2.67;;
438;SDS011;206;48.782;9.252;2023-06-04T05:57:53;3.30;;;2.67;;
438;SDS011;206;48.782;9.252;2023-06-04T06:00:20;2.23;;;2.10;;
438;SDS011;206;48.782;9.252;2023-06-04T06:02:46;4.33;;;2.80;;
438;SDS011;206;48.782;9.252;2023-06-04T06:05:14;5.73;;;2.70;;
438;SDS011;206;48.782;9.252;2023-06-04T06:07:41;3.80;;;2.07;;
438;SDS011;206;48.782;9.252;2023-06-04T06:10:07;3.30;;;3.13;;
438;SDS011;206;48.782;9.252;2023-06-04T06:12:34;4.97;;;2.70;;
438;SDS011;206;48.782;9.252;2023-06-04T06:14:59;4.50;;;2.83;;
438;SDS011;206;48.782;9.252;2023-06-04T06:17:25;9.90;;;2.60;;
438;SDS011;206;48.782;9.252;2023-06-04T06:19:54;3.80;;;2.53;;
438;SDS011;206;48.782;9.252;2023-06-04T06:22:20;2.40;;;1.97;;
438;SDS011;206;48.782;9.252;2023-06-04T06:24:46;3.00;;;2.40;;
438;SDS011;206;48.782;9.252;2023-06-04T06:27:15;2.70;;;2.53;;
438;SDS011;206;48.782;9.252;2023-06-04T06:29:41;3.27;;;2.40;;
438;SDS011;206;48.782;9.252;2023-06-04T06:32:07;3.13;;;2.83;;
438;SDS011;206;48.782;9.252;2023-06-04T06:34:33;2.80;;;2.10;;
438;SDS011;206;48.782;9.252;2023-06-04T06:36:59;2.67;;;2.23;;
438;SDS011;206;48.782;9.252;2023-06-04T06:39:25;6.27;;;2.90;;
438;SDS011;206;48.782;9.252;2023-06-04T06:41:51;3.73;;;2.37;;
438;SDS011;206;48.782;9.252;2023-06-04T06:44:16;3.30;;;2.20;;
438;SDS011;206;48.782;9.252;2023-06-04T06:46:42;2.60;;;2.13;;
438;SDS011;206;48.782;9.252;2023-06-04T06:49:08;4.90;;;3.27;;
438;SDS011;206;48.782;9.252;2023-06-04T06:51:33;2.63;;;2.37;;
438;SDS011;206;48.782;9.252;2023-06-04T06:53:59;3.57;;;2.53;;
438;SDS011;206;48.782;9.252;2023-06-04T06:56:24;10.77;;;2.20;;
438;SDS011;206;48.782;9.252;2023-06-04T06:58:51;8.80;;;2.20;;
438;SDS011;206;48.782;9.252;2023-06-04T07:01:16;3.20;;;2.27;;
438;SDS011;206;48.782;9.252;2023-06-04T07:03:42;7.00;;;2.80;;
438;SDS011;206;48.782;9.252;2023-06-04T07:06:08;1.87;;;1.80;;
438;SDS011;206;48.782;9.252;2023-06-04T07:08:34;3.90;;;2.20;;
438;SDS011;206;48.782;9.252;2023-06-04T07:11:00;2.10;;;2.00;;
438;SDS011;206;48.782;9.252;2023-06-04T07:13:27;4.27;;;2.97;;
438;SDS011;206;48.782;9.252;2023-06-04T07:15:53;2.60;;;2.40;;
438;SDS011;206;48.782;9.252;2023-06-04T07:18:19;3.30;;;2.00;;
438;SDS011;206;48.782;9.252;2023-06-04T07:20:45;2.47;;;2.10;;
438;SDS011;206;48.782;9.252;2023-06-04T07:23:11;3.10;;;2.13;;
438;SDS011;206;48.782;9.252;2023-06-04T07:25:36;4.43;;;2.80;;
438;SDS011;206;48.782;9.252;2023-06-04T07:28:02;4.97;;;1.77;;
438;SDS011;206;48.782;9.252;2023-06-04T07:30:30;1.67;;;1.63;;
438;SDS011;206;48.782;9.252;2023-06-04T07:32:58;3.07;;;2.70;;
438;SDS011;206;48.782;9.252;2023-06-04T07:35:24;3.27;;;2.20;;
438;SDS011;206;48.782;9.252;2023-06-04T07:37:50;2.63;;;1.90;;
438;SDS011;206;48.782;9.252;2023-06-04T07:40:16;3.87;;;2.60;;
438;SDS011;206;48.782;9.252;2023-06-04T07:42:42;4.13;;;2.77;;
438;SDS011;206;48.782;9.252;2023-06-04T07:45:10;3.83;;;2.03;;
438;SDS011;206;48.782;9.252;2023-06-04T07:47:36;3.97;;;1.80;;
438;SDS011;206;48.782;9.252;2023-06-04T07:50:02;2.23;;;2.07;;
438;SDS011;206;48.782;9.252;2023-06-04T07:52:28;2.60;;;2.30;;
438;SDS011;206;48.782;9.252;2023-06-04T07:54:54;3.00;;;2.33;;
438;SDS011;206;48.782;9.252;2023-06-04T07:57:20;4.87;;;2.63;;
438;SDS011;206;48.782;9.252;2023-06-04T07:59:45;2.40;;;2.27;;
438;SDS011;206;48.782;9.252;2023-06-04T08:02:11;2.83;;;2.67;;
438;SDS011;206;48.782;9.252;2023-06-04T08:04:37;4.13;;;2.30;;
438;SDS011;206;48.782;9.252;2023-06-04T08:07:02;5.13;;;3.43;;
438;SDS011;206;48.782;9.252;2023-06-04T08:09:28;5.07;;;2.80;;
438;SDS011;206;48.782;9.252;2023-06-04T08:11:53;3.40;;;2.43;;
438;SDS011;206;48.782;9.252;2023-06-04T08:14:19;4.10;;;2.70;;
438;SDS011;206;48.782;9.252;2023-06-04T08:16:47;3.43;;;2.77;;
438;SDS011;206;48.782;9.252;2023-06-04T08:19:12;3.20;;;2.70;;
438;SDS011;206;48.782;9.252;2023-06-04T08:21:38;3.37;;;2.50;;
438;SDS011;206;48.782;9.252;2023-06-04T08:24:05;4.20;;;3.00;;
438;SDS011;206;48.782;9.252;2023-06-04T08:26:31;6.30;;;4.70;;
438;SDS011;206;48.782;9.252;2023-06-04T08:28:57;4.43;;;3.27;;
438;SDS011;206;48.782;9.252;2023-06-04T08:31:23;5.13;;;2.50;;
438;SDS011;206;48.782;9.252;2023-06-04T08:33:49;4.43;;;3.30;;
438;SDS011;206;48.782;9.252;2023-06-04T08:36:14;4.17;;;2.93;;
438;SDS011;206;48.782;9.252;2023-06-04T08:38:41;4.60;;;3.47;;
438;SDS011;206;48.782;9.252;2023-06-04T08:41:13;5.73;;;2.77;;
438;SDS011;206;48.782;9.252;2023-06-04T08:43:42;3.27;;;2.20;;
438;SDS011;206;48.782;9.252;2023-06-04T08:46:09;7.00;;;2.90;;
438;SDS011;206;48.782;9.252;2023-06-04T08:48:35;4.93;;;3.10;;
438;SDS011;206;48.782;9.252;2023-06-04T08:51:02;5.20;;;2.80;;
438;SDS011;206;48.782;9.252;2023-06-04T08:53:33;3.00;;;2.67;;
438;SDS011;206;48.782;9.252;2023-06-04T08:55:59;3.20;;;2.77;;
438;SDS011;206;48.782;9.252;2023-06-04T08:58:25;3.10;;;2.63;;
438;SDS011;206;48.782;9.252;2023-06-04T09:00:52;3.30;;;2.53;;
438;SDS011;206;48.782;9.252;2023-06-04T09:03:18;3.50;;;2.67;;
438;SDS011;206;48.782;9.252;2023-06-04T09:05:46;4.73;;;3.37;;
438;SDS011;206;48.782;9.252;2023-06-04T09:08:15;3.10;;;2.93;;
438;SDS011;206;48.782;9.252;2023-06-04T09:10:43;4.53;;;3.07;;
438;SDS011;206;48.782;9.252;2023-06-04T09:13:14;3.80;;;3.10;;
438;SDS011;206;48.782;9.252;2023-06-04T09:15:41;3.10;;;2.43;;
438;SDS011;206;48.782;9.252;2023-06-04T09:18:06;13.37;;;2.87;;
438;SDS011;206;48.782;9.252;2023-06-04T09:20:32;6.90;;;2.70;;
438;SDS011;206;48.782;9.252;2023-06-04T09:22:58;2.70;;;2.43;;
438;SDS011;206;48.782;9.252;2023-06-04T09:25:24;4.40;;;2.33;;
438;SDS011;206;48.782;9.252;2023-06-04T09:27:51;4.37;;;3.23;;
438;SDS011;206;48.782;9.252;2023-06-04T09:30:18;3.27;;;2.70;;
438;SDS011;206;48.782;9.252;2023-06-04T09:32:44;5.73;;;3.47;;
438;SDS011;206;48.782;9.252;2023-06-04T09:35:16;4.57;;;3.10;;
438;SDS011;206;48.782;9.252;2023-06-04T09:37:50;3.93;;;2.70;;
438;SDS011;206;48.782;9.252;2023-06-04T09:40:17;4.53;;;3.20;;
438;SDS011;206;48.782;9.252;2023-06-04T09:42:47;6.53;;;4.30;;
438;SDS011;206;48.782;9.252;2023-06-04T09:47:57;5.20;;;3.00;;
438;SDS011;206;48.782;9.252;2023-06-04T09:50:27;6.43;;;2.87;;
438;SDS011;206;48.782;9.252;2023-06-04T09:52:55;6.07;;;3.33;;
438;SDS011;206;48.782;9.252;2023-06-04T09:55:21;4.23;;;3.17;;
438;SDS011;206;48.782;9.252;2023-06-04T09:57:48;3.47;;;3.27;;
438;SDS011;206;48.782;9.252;2023-06-04T10:00:18;5.77;;;3.37;;
438;SDS011;206;48.782;9.252;2023-06-04T10:02:46;5.80;;;3.27;;
438;SDS011;206;48.782;9.252;2023-06-04T10:05:13;4.60;;;3.43;;
438;SDS011;206;48.782;9.252;2023-06-04T10:07:43;4.97;;;3.40;;
438;SDS011;206;48.782;9.252;2023-06-04T10:10:11;3.80;;;3.33;;
438;SDS011;206;48.782;9.252;2023-06-04T10:12:45;6.23;;;2.80;;
438;SDS011;206;48.782;9.252;2023-06-04T10:15:19;4.17;;;3.23;;
438;SDS011;206;48.782;9.252;2023-06-04T10:17:46;5.33;;;3.90;;
438;SDS011;206;48.782;9.252;2023-06-04T10:20:13;5.57;;;2.90;;
438;SDS011;206;48.782;9.252;2023-06-04T10:22:39;9.27;;;3.60;;
438;SDS011;206;48.782;9.252;2023-06-04T10:25:06;3.60;;;3.10;;
438;SDS011;206;48.782;9.252;2023-06-04T10:27:35;4.53;;;3.33;;
438;SDS011;206;48.782;9.252;2023-06-04T10:30:02;3.97;;;3.77;;
438;SDS011;206;48.782;9.252;2023-06-04T10:32:29;5.27;;;3.00;;
438;SDS011;206;48.782;9.252;2023-06-04T10:34:55;7.67;;;3.53;;
438;SDS011;206;48.782;9.252;2023-06-04T10:37:25;9.53;;;3.20;;
438;SDS011;206;48.782;9.252;2023-06-04T10:39:57;3.77;;;3.23;;
438;SDS011;206;48.782;9.252;2023-06-04T10:42:23;3.27;;;3.07;;
438;SDS011;206;48.782;9.252;2023-06-04T10:44:53;2.83;;;2.60;;
438;SDS011;206;48.782;9.252;2023-06-04T10:47:20;3.93;;;3.03;;
438;SDS011;206;48.782;9.252;2023-06-04T10:49:51;3.70;;;3.27;;
438;SDS011;206;48.782;9.252;2023-06-04T10:52:17;5.13;;;3.40;;
438;SDS011;206;48.782;9.252;2023-06-04T10:54:44;8.83;;;3.37;;
438;SDS011;206;48.782;9.252;2023-06-04T10:59:38;5.30;;;3.13;;
438;SDS011;206;48.782;9.252;2023-06-04T11:02:07;7.30;;;3.40;;
438;SDS011;206;48.782;9.252;2023-06-04T11:04:33;4.93;;;3.70;;
438;SDS011;206;48.782;9.252;2023-06-04T11:09:37;5.07;;;3.57;;
438;SDS011;206;48.782;9.252;2023-06-04T11:12:12;3.87;;;3.30;;
438;SDS011;206;48.782;9.252;2023-06-04T11:14:37;6.60;;;3.57;;
438;SDS011;206;48.782;9.252;2023-06-04T11:17:10;8.97;;;3.53;;
438;SDS011;206;48.782;9.252;2023-06-04T11:19:36;3.80;;;3.53;;
438;SDS011;206;48.782;9.252;2023-06-04T11:22:03;5.60;;;3.30;;
438;SDS011;206;48.782;9.252;2023-06-04T11:24:29;11.03;;;4.07;;
438;SDS011;206;48.782;9.252;2023-06-04T11:26:56;7.40;;;4.40;;
438;SDS011;206;48.782;9.252;2023-06-04T11:29:25;3.03;;;2.87;;
438;SDS011;206;48.782;9.252;2023-06-04T11:31:50;7.20;;;3.40;;
438;SDS011;206;48.782;9.252;2023-06-04T11:34:25;3.27;;;3.07;;
438;SDS011;206;48.782;9.252;2023-06-04T11:36:52;3.90;;;3.10;;
438;SDS011;206;48.782;9.252;2023-06-04T11:39:19;5.23;;;3.40;;
438;SDS011;206;48.782;9.252;2023-06-04T11:41:44;3.40;;;3.20;;
438;SDS011;206;48.782;9.252;2023-06-04T11:44:11;5.17;;;2.97;;
438;SDS011;206;48.782;9.252;2023-06-04T11:46:41;4.87;;;3.93;;
438;SDS011;206;48.782;9.252;2023-06-04T11:49:14;5.57;;;3.47;;
438;SDS011;206;48.782;9.252;2023-06-04T11:54:13;3.53;;;3.40;;
438;SDS011;206;48.782;9.252;2023-06-04T11:56:41;3.70;;;3.40;;
438;SDS011;206;48.782;9.252;2023-06-04T11:59:09;6.83;;;3.37;;
438;SDS011;206;48.782;9.252;2023-06-04T12:01:38;6.07;;;3.70;;
438;SDS011;206;48.782;9.252;2023-06-04T12:07:00;5.70;;;3.60;;
438;SDS011;206;48.782;9.252;2023-06-04T12:09:31;3.93;;;3.73;;
438;SDS011;206;48.782;9.252;2023-06-04T12:12:01;7.53;;;3.80;;
438;SDS011;206;48.782;9.252;2023-06-04T12:14:29;8.60;;;3.53;;
438;SDS011;206;48.782;9.252;2023-06-04T12:16:55;5.40;;;3.33;;
438;SDS011;206;48.782;9.252;2023-06-04T12:19:31;8.00;;;4.20;;
438;SDS011;206;48.782;9.252;2023-06-04T12:22:03;4.37;;;3.60;;
438;SDS011;206;48.782;9.252;2023-06-04T12:24:30;3.97;;;3.73;;
438;SDS011;206;48.782;9.252;2023-06-04T12:27:15;4.50;;;4.20;;
438;SDS011;206;48.782;9.252;2023-06-04T12:29:41;4.50;;;4.20;;
438;SDS011;206;48.782;9.252;2023-06-04T12:32:10;4.80;;;3.33;;
438;SDS011;206;48.782;9.252;2023-06-04T12:34:40;6.60;;;4.00;;
438;SDS011;206;48.782;9.252;2023-06-04T12:37:06;5.27;;;4.10;;
438;SDS011;206;48.782;9.252;2023-06-04T12:39:33;5.07;;;4.00;;
438;SDS011;206;48.782;9.252;2023-06-04T12:41:59;3.20;;;3.00;;
438;SDS011;206;48.782;9.252;2023-06-04T12:44:25;5.37;;;3.40;;
438;SDS011;206;48.782;9.252;2023-06-04T12:46:50;5.30;;;4.03;;
438;SDS011;206;48.782;9.252;2023-06-04T12:49:16;4.60;;;3.77;;
438;SDS011;206;48.782;9.252;2023-06-04T12:51:42;5.37;;;3.70;;
438;SDS011;206;48.782;9.252;2023-06-04T12:54:07;5.60;;;4.03;;
438;SDS011;206;48.782;9.252;2023-06-04T12:56:33;4.83;;;3.97;;
438;SDS011;206;48.782;9.252;2023-06-04T12:58:59;3.93;;;3.53;;
438;SDS011;206;48.782;9.252;2023-06-04T13:01:24;4.73;;;4.47;;
438;SDS011;206;48.782;9.252;2023-06-04T13:03:50;5.17;;;4.17;;
438;SDS011;206;48.782;9.252;2023-06-04T13:06:16;4.67;;;4.37;;
438;SDS011;206;48.782;9.252;2023-06-04T13:08:41;3.70;;;3.50;;
438;SDS011;206;48.782;9.252;2023-06-04T13:11:08;3.40;;;3.23;;
438;SDS011;206;48.782;9.252;2023-06-04T13:13:34;7.53;;;4.10;;
438;SDS011;206;48.782;9.252;2023-06-04T13:16:01;5.67;;;3.77;;
438;SDS011;206;48.782;9.252;2023-06-04T13:18:27;4.30;;;4.07;;
438;SDS011;206;48.782;9.252;2023-06-04T13:20:53;5.50;;;3.67;;
438;SDS011;206;48.782;9.252;2023-06-04T13:23:19;6.23;;;4.20;;
438;SDS011;206;48.782;9.252;2023-06-04T13:25:45;5.60;;;3.90;;
438;SDS011;206;48.782;9.252;2023-06-04T13:28:10;4.07;;;3.50;;
438;SDS011;206;48.782;9.252;2023-06-04T13:30:36;4.63;;;4.33;;
438;SDS011;206;48.782;9.252;2023-06-04T13:33:02;10.23;;;3.60;;
438;SDS011;206;48.782;9.252;2023-06-04T13:35:28;4.30;;;3.67;;
438;SDS011;206;48.782;9.252;2023-06-04T13:37:53;6.80;;;3.30;;
438;SDS011;206;48.782;9.252;2023-06-04T13:40:19;4.53;;;3.70;;
438;SDS011;206;48.782;9.252;2023-06-04T13:42:45;5.63;;;4.17;;
438;SDS011;206;48.782;9.252;2023-06-04T13:45:10;3.77;;;3.43;;
438;SDS011;206;48.782;9.252;2023-06-04T13:47:36;4.80;;;3.60;;
438;SDS011;206;48.782;9.252;2023-06-04T13:50:02;6.57;;;3.37;;
438;SDS011;206;48.782;9.252;2023-06-04T13:52:29;3.90;;;3.10;;
438;SDS011;206;48.782;9.252;2023-06-04T13:54:54;3.93;;;3.47;;
438;SDS011;206;48.782;9.252;2023-06-04T13:57:20;3.97;;;3.40;;
438;SDS011;206;48.782;9.252;2023-06-04T13:59:46;5.80;;;4.10;;
438;SDS011;206;48.782;9.252;2023-06-04T14:02:13;4.47;;;3.63;;
438;SDS011;206;48.782;9.252;2023-06-04T14:04:39;5.10;;;3.97;;
438;SDS011;206;48.782;9.252;2023-06-04T14:07:04;7.73;;;3.60;;
438;SDS011;206;48.782;9.252;2023-06-04T14:09:31;3.67;;;3.30;;
438;SDS011;206;48.782;9.252;2023-06-04T14:11:57;5.83;;;3.97;;
438;SDS011;206;48.782;9.252;2023-06-04T14:14:23;3.47;;;3.13;;
438;SDS011;206;48.782;9.252;2023-06-04T14:16:48;3.70;;;3.50;;
438;SDS011;206;48.782;9.252;2023-06-04T14:19:14;3.20;;;3.00;;
438;SDS011;206;48.782;9.252;2023-06-04T14:21:41;4.00;;;3.80;;
438;SDS011;206;48.782;9.252;2023-06-04T14:24:08;3.63;;;3.43;;
438;SDS011;206;48.782;9.252;2023-06-04T14:26:34;4.07;;;3.47;;
438;SDS011;206;48.782;9.252;2023-06-04T14:29:00;6.30;;;3.60;;
438;SDS011;206;48.782;9.252;2023-06-04T14:31:26;6.00;;;3.67;;
438;SDS011;206;48.782;9.252;2023-06-04T14:33:52;6.43;;;3.50;;
438;SDS011;206;48.782;9.252;2023-06-04T14:36:17;5.10;;;3.40;;
438;SDS011;206;48.782;9.252;2023-06-04T14:38:43;4.00;;;3.37;;
438;SDS011;206;48.782;9.252;2023-06-04T14:41:09;5.80;;;4.43;;
438;SDS011;206;48.782;9.252;2023-06-04T14:43:35;5.30;;;3.70;;
438;SDS011;206;48.782;9.252;2023-06-04T14:46:01;3.83;;;3.43;;
438;SDS011;206;48.782;9.252;2023-06-04T14:48:26;8.10;;;4.33;;
438;SDS011;206;48.782;9.252;2023-06-04T14:50:52;6.97;;;3.93;;
438;SDS011;206;48.782;9.252;2023-06-04T14:53:19;4.47;;;3.70;;
438;SDS011;206;48.782;9.252;2023-06-04T14:55:45;12.50;;;4.53;;
438;SDS011;206;48.782;9.252;2023-06-04T14:58:14;7.53;;;4.40;;
438;SDS011;206;48.782;9.252;2023-06-04T15:00:41;4.73;;;3.50;;
438;SDS011;206;48.782;9.252;2023-06-04T15:03:07;4.80;;;3.53;;
438;SDS011;206;48.782;9.252;2023-06-04T15:05:33;5.43;;;3.57;;
438;SDS011;206;48.782;9.252;2023-06-04T15:07:59;8.80;;;3.20;;
438;SDS011;206;48.782;9.252;2023-06-04T15:10:25;6.07;;;3.80;;
438;SDS011;206;48.782;9.252;2023-06-04T15:12:54;4.73;;;3.50;;
438;SDS011;206;48.782;9.252;2023-06-04T15:15:19;3.70;;;3.10;;
438;SDS011;206;48.782;9.252;2023-06-04T15:17:45;5.67;;;3.80;;
438;SDS011;206;48.782;9.252;2023-06-04T15:20:11;4.80;;;4.43;;
438;SDS011;206;48.782;9.252;2023-06-04T15:22:36;4.50;;;4.20;;
438;SDS011;206;48.782;9.252;2023-06-04T15:25:02;4.70;;;4.10;;
438;SDS011;206;48.782;9.252;2023-06-04T15:27:28;7.97;;;3.60;;
438;SDS011;206;48.782;9.252;2023-06-04T15:29:53;6.33;;;4.20;;
438;SDS011;206;48.782;9.252;2023-06-04T15:32:19;9.43;;;3.60;;
438;SDS011;206;48.782;9.252;2023-06-04T15:34:46;4.80;;;3.57;;
438;SDS011;206;48.782;9.252;2023-06-04T15:37:12;5.50;;;3.53;;
438;SDS011;206;48.782;9.252;2023-06-04T15:39:38;3.50;;;3.23;;
438;SDS011;206;48.782;9.252;2023-06-04T15:42:03;4.40;;;4.10;;
438;SDS011;206;48.782;9.252;2023-06-04T15:44:29;5.03;;;3.20;;
438;SDS011;206;48.782;9.252;2023-06-04T15:46:55;4.60;;;2.60;;
438;SDS011;206;48.782;9.252;2023-06-04T15:49:20;7.00;;;3.50;;
438;SDS011;206;48.782;9.252;2023-06-04T15:51:46;3.93;;;3.17;;
438;SDS011;206;48.782;9.252;2023-06-04T15:54:12;5.47;;;3.10;;
438;SDS011;206;48.782;9.252;2023-06-04T15:56:38;4.23;;;3.40;;
438;SDS011;206;48.782;9.252;2023-06-04T15:59:03;3.73;;;3.60;;